createdAt,value
2023-04-15T00:00:29.963Z,63.26
2023-04-15T00:03:15.849Z,64.74
2023-04-15T00:05:44.197Z,66.75
2023-04-15T00:08:13.879Z,67.82
2023-04-15T00:10:44.142Z,67.12
2023-04-15T00:13:12.514Z,66.98
2023-04-15T00:15:40.485Z,66.57
2023-04-15T00:18:09.068Z,66.28
2023-04-15T00:20:38.334Z,66.61
2023-04-15T00:23:06.557Z,66.74
2023-04-15T00:25:35.871Z,65.83
2023-04-15T00:28:04.200Z,65.73
2023-04-15T00:30:32.372Z,66.01
2023-04-15T00:33:02.218Z,65.96
2023-04-15T00:35:32.545Z,65.92
2023-04-15T00:38:00.869Z,65.66
2023-04-15T00:40:28.927Z,65.21
2023-04-15T00:42:58.510Z,65.57
2023-04-15T00:45:27.383Z,65.62
2023-04-15T00:47:56.892Z,66.31
2023-04-15T00:50:25.194Z,67.76
2023-04-15T00:52:53.437Z,68.05
2023-04-15T00:55:21.696Z,67.51
2023-04-15T00:57:49.996Z,66.75
2023-04-15T01:00:20.155Z,66.35
2023-04-15T01:02:48.613Z,66.43
2023-04-15T01:05:19.404Z,66.44
2023-04-15T01:07:48.152Z,65.98
2023-04-15T01:10:16.282Z,65.89
2023-04-15T01:12:44.933Z,66.11
2023-04-15T01:15:13.064Z,66.17
2023-04-15T01:17:43.391Z,66.59
2023-04-15T01:20:12.204Z,66.06
2023-04-15T01:22:40.908Z,66.20
2023-04-15T01:25:13.053Z,67.02
2023-04-15T01:27:43.300Z,66.97
2023-04-15T01:30:12.090Z,67.10
2023-04-15T01:32:40.450Z,66.95
2023-04-15T01:35:27.159Z,67.10
2023-04-15T01:37:55.752Z,67.14
2023-04-15T01:40:23.757Z,68.16
2023-04-15T01:42:53.750Z,69.25
2023-04-15T01:45:21.813Z,68.56
2023-04-15T01:47:50.407Z,68.73
2023-04-15T01:50:18.928Z,68.20
2023-04-15T01:52:47.540Z,68.41
2023-04-15T01:55:16.020Z,68.20
2023-04-15T01:57:44.374Z,68.55
2023-04-15T02:00:14.673Z,68.79
2023-04-15T02:02:43.816Z,69.28
2023-04-15T02:05:11.963Z,69.71
2023-04-15T02:07:40.240Z,70.05
2023-04-15T02:10:10.166Z,70.51
2023-04-15T02:12:38.475Z,70.46
2023-04-15T02:15:08.914Z,70.43
2023-04-15T02:17:38.690Z,70.21
2023-04-15T02:20:08.551Z,70.05
2023-04-15T02:22:36.906Z,70.16
2023-04-15T02:25:05.539Z,69.54
2023-04-15T02:27:33.951Z,69.79
2023-04-15T02:30:02.031Z,69.72
2023-04-15T02:32:30.556Z,68.62
2023-04-15T02:35:03.678Z,68.63
2023-04-15T02:37:32.887Z,69.01
2023-04-15T02:40:01.438Z,68.79
2023-04-15T02:42:30.355Z,68.78
2023-04-15T02:45:01.490Z,69.29
2023-04-15T02:47:34.074Z,70.49
2023-04-15T02:50:04.046Z,71.18
2023-04-15T02:52:33.148Z,71.17
2023-04-15T02:55:02.551Z,71.34
2023-04-15T02:57:31.619Z,71.03
2023-04-15T03:00:09.479Z,70.97
2023-04-15T03:02:40.204Z,71.28
2023-04-15T03:05:13.033Z,71.56
2023-04-15T03:07:44.578Z,71.46
2023-04-15T03:10:13.129Z,72.25
2023-04-15T03:12:41.677Z,72.77
2023-04-15T03:15:12.954Z,73.58
2023-04-15T03:17:46.234Z,73.64
2023-04-15T03:20:15.928Z,73.89
2023-04-15T03:22:44.290Z,74.46
2023-04-15T03:25:12.602Z,74.42
2023-04-15T03:27:40.938Z,74.48
2023-04-15T03:30:10.632Z,74.03
2023-04-15T03:32:40.217Z,73.39
2023-04-15T03:35:09.822Z,73.15
2023-04-15T03:37:39.465Z,72.60
2023-04-15T03:40:09.725Z,71.46
2023-04-15T03:42:38.050Z,71.53
2023-04-15T03:45:07.544Z,72.01
2023-04-15T03:47:35.921Z,71.48
2023-04-15T03:50:04.320Z,71.80
2023-04-15T03:52:32.550Z,72.25
2023-04-15T03:55:02.249Z,72.52
2023-04-15T03:57:30.591Z,73.22
2023-04-15T03:59:59.622Z,72.95
2023-04-15T04:02:28.322Z,73.04
2023-04-15T04:04:56.536Z,73.11
2023-04-15T04:07:25.419Z,73.14
2023-04-15T04:09:53.555Z,73.54
2023-04-15T04:12:23.216Z,73.40
2023-04-15T04:14:51.362Z,73.16
2023-04-15T04:17:19.630Z,73.16
2023-04-15T04:19:47.634Z,72.86
2023-04-15T04:22:15.855Z,72.20
2023-04-15T04:24:43.875Z,71.10
2023-04-15T04:27:12.125Z,71.36
2023-04-15T04:29:41.449Z,72.05
2023-04-15T04:32:09.977Z,72.71
2023-04-15T04:34:38.205Z,72.86
2023-04-15T04:37:06.889Z,73.78
2023-04-15T04:39:34.881Z,74.05
2023-04-15T04:42:03.118Z,74.03
2023-04-15T04:44:31.195Z,74.47
2023-04-15T04:47:00.819Z,75.50
2023-04-15T04:49:28.864Z,75.73
2023-04-15T04:51:57.309Z,75.81
2023-04-15T04:54:25.401Z,75.23
2023-04-15T04:56:53.727Z,74.21
2023-04-15T04:59:21.680Z,74.38
2023-04-15T05:01:49.896Z,74.37
2023-04-15T05:04:19.565Z,74.79
2023-04-15T05:06:47.847Z,75.75
2023-04-15T05:09:16.002Z,75.83
2023-04-15T05:11:44.267Z,75.61
2023-04-15T05:14:12.258Z,75.57
2023-04-15T05:16:40.574Z,75.02
2023-04-15T05:19:08.705Z,75.13
2023-04-15T05:21:39.530Z,74.25
2023-04-15T05:24:07.911Z,73.06
2023-04-15T05:26:36.198Z,73.21
2023-04-15T05:29:04.351Z,72.81
2023-04-15T05:31:32.866Z,72.80
2023-04-15T05:34:01.425Z,73.26
2023-04-15T05:36:29.715Z,73.82
2023-04-15T05:38:59.468Z,73.94
2023-04-15T05:41:27.936Z,74.50
2023-04-15T05:43:56.158Z,74.53
2023-04-15T05:46:24.511Z,74.95
2023-04-15T05:48:53.807Z,74.52
2023-04-15T05:51:23.068Z,74.04
2023-04-15T05:53:51.231Z,74.41
2023-04-15T05:56:21.307Z,74.23
2023-04-15T05:58:50.129Z,74.33
2023-04-15T06:01:19.253Z,74.29
2023-04-15T06:03:47.478Z,73.76
2023-04-15T06:06:16.414Z,73.61
2023-04-15T06:08:44.394Z,74.60
2023-04-15T06:11:12.685Z,74.99
2023-04-15T06:13:42.070Z,77.23
2023-04-15T06:16:10.334Z,74.94
2023-04-15T06:18:38.372Z,74.55
2023-04-15T06:21:07.010Z,74.70
2023-04-15T06:23:36.177Z,75.28
2023-04-15T06:26:04.684Z,74.91
2023-04-15T06:28:32.740Z,75.15
2023-04-15T06:31:02.463Z,75.24
2023-04-15T06:33:30.580Z,74.48
2023-04-15T06:35:58.768Z,74.31
2023-04-15T06:38:26.773Z,73.75
2023-04-15T06:40:54.982Z,73.05
2023-04-15T06:43:23.026Z,72.88
2023-04-15T06:45:51.628Z,72.95
2023-04-15T06:48:21.044Z,72.57
2023-04-15T06:50:50.093Z,72.84
2023-04-15T06:53:18.032Z,72.30
2023-04-15T06:55:46.296Z,72.21
2023-04-15T06:58:14.351Z,72.53
2023-04-15T07:00:42.954Z,72.74
2023-04-15T07:03:12.752Z,71.98
2023-04-15T07:05:42.485Z,71.76
2023-04-15T07:08:10.528Z,70.76
2023-04-15T07:10:39.112Z,71.21
2023-04-15T07:13:08.681Z,70.91
2023-04-15T07:15:36.952Z,71.60
2023-04-15T07:18:04.976Z,71.56
2023-04-15T07:20:33.292Z,71.31
2023-04-15T07:23:02.725Z,72.05
2023-04-15T07:25:30.975Z,71.93
2023-04-15T07:27:58.997Z,71.10
2023-04-15T07:30:27.200Z,70.29
2023-04-15T07:32:55.340Z,69.52
2023-04-15T07:35:23.658Z,69.45
2023-04-15T07:37:52.111Z,67.86
2023-04-15T07:40:22.342Z,67.81
2023-04-15T07:42:50.425Z,67.05
2023-04-15T07:45:18.762Z,67.44
2023-04-15T07:47:46.857Z,67.59
2023-04-15T07:50:16.113Z,66.76
2023-04-15T07:52:44.202Z,65.73
2023-04-15T07:55:12.515Z,66.71
2023-04-15T07:57:41.896Z,66.70
2023-04-15T08:00:11.350Z,65.42
2023-04-15T08:02:42.637Z,64.51
2023-04-15T08:05:11.647Z,63.85
2023-04-15T08:07:40.640Z,63.00
2023-04-15T08:10:09.532Z,62.90
2023-04-15T08:12:37.762Z,62.03
2023-04-15T08:15:09.130Z,61.80
2023-04-15T08:17:37.341Z,62.26
2023-04-15T08:20:06.749Z,62.18
2023-04-15T08:22:35.489Z,62.54
2023-04-15T08:25:03.834Z,62.14
2023-04-15T08:27:32.017Z,62.00
2023-04-15T08:30:02.141Z,61.09
2023-04-15T08:32:33.036Z,60.55
2023-04-15T08:35:01.726Z,59.86
2023-04-15T08:37:29.707Z,58.63
2023-04-15T08:39:57.906Z,58.13
2023-04-15T08:42:32.315Z,58.38
2023-04-15T08:45:01.569Z,58.20
2023-04-15T08:47:31.974Z,58.48
2023-04-15T08:50:05.046Z,57.42
2023-04-15T08:52:33.182Z,57.79
2023-04-15T08:55:01.689Z,58.69
2023-04-15T08:57:30.499Z,58.03
2023-04-15T08:59:58.779Z,57.33
2023-04-15T09:02:28.074Z,55.75
2023-04-15T09:04:56.721Z,55.83
2023-04-15T09:07:26.126Z,56.37
2023-04-15T09:09:54.343Z,55.92
2023-04-15T09:12:22.819Z,55.27
2023-04-15T09:14:51.136Z,54.58
2023-04-15T09:17:20.514Z,54.67
2023-04-15T09:19:48.940Z,53.98
2023-04-15T09:22:17.254Z,53.60
2023-04-15T09:24:47.472Z,52.82
2023-04-15T09:27:17.606Z,52.59
2023-04-15T09:29:45.934Z,52.89
2023-04-15T09:32:15.103Z,52.45
2023-04-15T09:34:43.603Z,52.69
2023-04-15T09:37:20.690Z,53.20
2023-04-15T09:40:01.018Z,52.21
2023-04-15T09:42:29.150Z,52.82
2023-04-15T09:44:57.464Z,52.20
2023-04-15T09:47:29.546Z,52.29
2023-04-15T09:49:58.411Z,51.65
2023-04-15T09:52:27.255Z,51.25
2023-04-15T09:54:56.979Z,51.22
2023-04-15T09:57:26.677Z,51.86
2023-04-15T09:59:54.911Z,51.23
2023-04-15T10:02:23.303Z,50.97
2023-04-15T10:04:53.674Z,51.48
2023-04-15T10:07:22.622Z,50.60
2023-04-15T10:09:50.981Z,50.92
2023-04-15T10:12:19.128Z,50.13
2023-04-15T10:14:53.150Z,49.50
2023-04-15T10:17:23.622Z,50.24
2023-04-15T10:19:55.006Z,50.90
2023-04-15T10:22:23.864Z,50.44
2023-04-15T10:24:52.505Z,50.04
2023-04-15T10:27:22.055Z,49.78
2023-04-15T10:29:52.415Z,48.66
2023-04-15T10:32:26.431Z,47.37
2023-04-15T10:34:55.653Z,48.24
2023-04-15T10:37:33.953Z,49.80
2023-04-15T10:40:02.742Z,51.32
2023-04-15T10:42:35.612Z,47.34
2023-04-15T10:45:17.409Z,43.89
2023-04-15T10:47:45.520Z,44.06
2023-04-15T10:50:13.917Z,45.12
2023-04-15T10:52:42.643Z,42.61
2023-04-15T10:55:15.751Z,43.15
2023-04-15T10:57:44.847Z,44.28
2023-04-15T11:00:16.734Z,42.78
2023-04-15T11:02:47.578Z,41.80
2023-04-15T11:05:16.714Z,41.88
2023-04-15T11:07:53.588Z,42.16
2023-04-15T11:10:52.953Z,41.48
2023-04-15T11:13:23.491Z,41.63
2023-04-15T11:15:58.283Z,40.14
2023-04-15T11:18:28.361Z,41.47
2023-04-15T11:20:59.201Z,41.60
2023-04-15T11:23:32.434Z,41.70
2023-04-15T11:26:01.662Z,41.78
2023-04-15T11:28:30.866Z,42.36
2023-04-15T11:31:07.298Z,42.91
2023-04-15T11:33:35.454Z,42.39
2023-04-15T11:36:04.474Z,42.15
2023-04-15T11:38:32.528Z,42.41
2023-04-15T11:41:03.286Z,41.62
2023-04-15T11:43:35.366Z,41.48
2023-04-15T11:46:05.447Z,41.63
2023-04-15T11:48:34.825Z,42.56
2023-04-15T11:51:04.082Z,43.10
2023-04-15T11:53:40.842Z,42.66
2023-04-15T11:56:09.896Z,42.46
2023-04-15T11:58:39.161Z,42.69
2023-04-15T12:01:08.801Z,42.14
2023-04-15T12:03:41.291Z,41.95
2023-04-15T12:06:12.934Z,41.99
2023-04-15T12:09:05.030Z,41.42
2023-04-15T12:11:36.186Z,42.22
2023-04-15T12:14:07.318Z,42.13
2023-04-15T12:16:48.891Z,41.10
2023-04-15T12:19:20.288Z,41.35
2023-04-15T12:21:49.504Z,41.40
2023-04-15T12:24:21.921Z,41.55
2023-04-15T12:26:51.706Z,41.87
2023-04-15T12:29:20.405Z,42.14
2023-04-15T12:31:51.706Z,42.85
2023-04-15T12:34:27.694Z,42.96
2023-04-15T12:36:55.970Z,43.02
2023-04-15T12:39:25.167Z,42.22
2023-04-15T12:41:53.464Z,42.50
2023-04-15T12:44:24.144Z,42.36
2023-04-15T12:46:54.387Z,43.23
2023-04-15T12:49:23.110Z,43.60
2023-04-15T12:51:51.773Z,42.07
2023-04-15T12:54:20.447Z,40.89
2023-04-15T12:56:49.742Z,41.73
2023-04-15T12:59:18.749Z,42.74
2023-04-15T13:01:47.352Z,42.26
2023-04-15T13:04:17.621Z,41.37
2023-04-15T13:06:45.970Z,39.65
2023-04-15T13:09:14.319Z,40.87
2023-04-15T13:11:42.565Z,38.20
2023-04-15T13:14:12.963Z,37.05
2023-04-15T13:16:41.329Z,36.63
2023-04-15T13:19:09.716Z,37.55
2023-04-15T13:21:39.166Z,37.91
2023-04-15T13:24:08.135Z,38.68
2023-04-15T13:26:36.475Z,39.14
2023-04-15T13:29:06.783Z,39.13
2023-04-15T13:31:34.876Z,39.86
2023-04-15T13:34:03.477Z,40.51
2023-04-15T13:36:31.853Z,40.26
2023-04-15T13:39:01.604Z,40.24
2023-04-15T13:41:30.039Z,41.18
2023-04-15T13:43:58.433Z,40.88
2023-04-15T13:46:26.803Z,40.90
2023-04-15T13:48:55.049Z,42.94
2023-04-15T13:51:23.007Z,44.39
2023-04-15T13:53:51.307Z,45.69
2023-04-15T13:56:21.487Z,46.02
2023-04-15T13:58:49.792Z,47.17
2023-04-15T14:01:17.871Z,46.77
2023-04-15T14:03:46.317Z,46.22
2023-04-15T14:06:14.436Z,46.11
2023-04-15T14:08:42.729Z,46.77
2023-04-15T14:11:11.079Z,46.29
2023-04-15T14:13:40.730Z,46.79
2023-04-15T14:16:08.976Z,47.31
2023-04-15T14:18:38.417Z,47.80
2023-04-15T14:21:07.222Z,46.76
2023-04-15T14:23:35.585Z,47.43
2023-04-15T14:26:03.611Z,47.54
2023-04-15T14:28:32.673Z,47.56
2023-04-15T14:31:02.210Z,48.30
2023-04-15T14:33:30.490Z,49.64
2023-04-15T14:35:58.532Z,51.00
2023-04-15T14:38:26.760Z,52.57
2023-04-15T14:40:54.738Z,53.73
2023-04-15T14:43:23.122Z,55.26
2023-04-15T14:45:51.861Z,56.68
2023-04-15T14:48:21.438Z,56.31
2023-04-15T14:50:49.464Z,57.29
2023-04-15T14:53:17.760Z,56.39
2023-04-15T14:55:45.975Z,58.54
2023-04-15T14:58:14.258Z,58.55
2023-04-15T15:00:44.366Z,59.11
2023-04-15T15:03:13.561Z,59.28
2023-04-15T15:05:44.103Z,59.56
2023-04-15T15:08:13.186Z,60.60
2023-04-15T15:10:49.764Z,61.45
2023-04-15T15:13:19.304Z,62.24
2023-04-15T15:15:49.249Z,62.49
2023-04-15T15:18:18.812Z,62.86
2023-04-15T15:20:49.342Z,63.64
2023-04-15T15:23:17.658Z,64.80
2023-04-15T15:25:47.152Z,65.29
2023-04-15T15:28:15.528Z,66.22
2023-04-15T15:30:43.512Z,66.10
2023-04-15T15:33:11.814Z,67.12
2023-04-15T15:35:40.896Z,66.51
2023-04-15T15:38:12.353Z,67.57
2023-04-15T15:40:40.574Z,68.26
2023-04-15T15:43:08.848Z,68.87
2023-04-15T15:45:36.982Z,69.59
2023-04-15T15:48:06.232Z,69.78
2023-04-15T15:50:34.865Z,70.62
2023-04-15T15:53:03.114Z,71.14
2023-04-15T15:55:32.450Z,71.57
2023-04-15T15:58:00.679Z,71.00
2023-04-15T16:00:28.749Z,71.46
2023-04-15T16:05:29.013Z,73.04
2023-04-15T16:07:57.260Z,72.90
2023-04-15T16:10:25.280Z,73.18
2023-04-15T16:12:55.374Z,72.68
2023-04-15T16:15:23.707Z,73.66
2023-04-15T16:17:52.170Z,73.21
2023-04-15T16:20:20.221Z,73.47
2023-04-15T16:22:48.626Z,74.00
2023-04-15T16:25:16.590Z,75.31
2023-04-15T16:27:58.934Z,75.22
2023-04-15T16:30:30.742Z,74.81
2023-04-15T16:32:59.131Z,75.15
2023-04-15T16:35:27.117Z,75.97
2023-04-15T16:37:55.444Z,75.96
2023-04-15T16:40:23.456Z,75.77
2023-04-15T16:42:51.776Z,77.65
2023-04-15T16:45:19.913Z,77.25
2023-04-15T16:47:49.679Z,77.36
2023-04-15T16:50:18.016Z,77.63
2023-04-15T16:52:46.259Z,79.34
2023-04-15T16:55:14.295Z,79.21
2023-04-15T16:58:02.402Z,79.44
2023-04-15T17:00:30.984Z,80.14
2023-04-15T17:03:01.271Z,78.47
2023-04-15T17:05:30.419Z,79.44
2023-04-15T17:07:58.675Z,80.98
2023-04-15T17:10:26.690Z,81.28
2023-04-15T17:12:56.920Z,80.50
2023-04-15T17:15:25.387Z,81.18
2023-04-15T17:18:05.549Z,82.14
2023-04-15T17:20:36.116Z,81.77
2023-04-15T17:23:04.859Z,82.25
2023-04-15T17:25:32.902Z,82.00
2023-04-15T17:28:02.282Z,81.86
2023-04-15T17:30:31.529Z,82.08
2023-04-15T17:33:55.889Z,82.39
2023-04-15T17:36:29.638Z,83.21
2023-04-15T17:39:17.998Z,82.87
2023-04-15T17:42:05.948Z,82.69
2023-04-15T17:44:54.148Z,83.88
2023-04-15T17:47:42.458Z,83.90
2023-04-15T17:50:32.026Z,83.26
2023-04-15T17:53:19.910Z,83.86
2023-04-15T17:56:08.132Z,83.46
2023-04-15T17:58:56.087Z,83.83
2023-04-15T18:01:45.383Z,82.78
2023-04-15T18:04:33.683Z,83.30
2023-04-15T18:07:23.360Z,83.57
2023-04-15T18:10:11.552Z,82.87
2023-04-15T18:12:59.840Z,83.52
2023-04-15T18:15:48.563Z,83.69
2023-04-15T18:18:36.892Z,84.26
2023-04-15T18:21:05.453Z,83.61
2023-04-15T18:23:35.151Z,84.70
2023-04-15T18:26:03.366Z,84.74
2023-04-15T18:28:31.795Z,85.17
2023-04-15T18:30:59.803Z,84.72
2023-04-15T18:33:28.085Z,85.64
2023-04-15T18:35:57.298Z,84.58
2023-04-15T18:38:25.681Z,85.05
2023-04-15T18:40:55.199Z,85.64
2023-04-15T18:43:23.548Z,86.13
2023-04-15T18:45:52.362Z,86.21
2023-04-15T18:48:20.779Z,86.72
2023-04-15T18:50:49.096Z,87.24
2023-04-15T18:53:17.281Z,87.76
2023-04-15T18:55:45.338Z,88.20
2023-04-15T18:58:14.976Z,87.90
2023-04-15T19:00:43.869Z,87.38
2023-04-15T19:03:12.341Z,87.82
2023-04-15T19:05:40.777Z,88.16
2023-04-15T19:08:09.138Z,88.07
2023-04-15T19:10:37.294Z,87.98
2023-04-15T19:13:05.645Z,88.53
2023-04-15T19:15:35.078Z,88.40
2023-04-15T19:18:05.273Z,88.69
2023-04-15T19:20:37.135Z,88.75
2023-04-15T19:23:06.956Z,88.71
2023-04-15T19:25:35.089Z,89.28
2023-04-15T19:28:03.384Z,89.13
2023-04-15T19:30:33.158Z,88.87
2023-04-15T19:33:03.819Z,89.05
2023-04-15T19:35:31.877Z,89.30
2023-04-15T19:38:00.328Z,89.27
2023-04-15T19:40:28.407Z,89.62
2023-04-15T19:42:56.773Z,89.53
2023-04-15T19:45:24.800Z,89.91
2023-04-15T19:47:52.911Z,90.59
2023-04-15T19:50:26.232Z,90.29
2023-04-15T19:52:54.551Z,90.87
2023-04-15T19:55:23.461Z,90.45
2023-04-15T19:57:51.589Z,90.81
2023-04-15T20:00:19.970Z,91.11
2023-04-15T20:02:48.457Z,91.43
2023-04-15T20:05:17.158Z,91.06
2023-04-15T20:07:49.052Z,91.19
2023-04-15T20:10:17.851Z,90.75
2023-04-15T20:12:51.019Z,91.12
2023-04-15T20:15:22.743Z,91.01
2023-04-15T20:17:51.311Z,90.99
2023-04-15T20:20:20.839Z,91.03
2023-04-15T20:22:50.701Z,91.03
2023-04-15T20:25:18.914Z,90.83
2023-04-15T20:27:47.176Z,90.80
2023-04-15T20:30:15.717Z,90.92
2023-04-15T20:32:44.189Z,90.89
2023-04-15T20:35:12.495Z,90.46
2023-04-15T20:37:40.649Z,90.78
2023-04-15T20:40:12.442Z,91.16
2023-04-15T20:42:42.941Z,91.46
2023-04-15T20:45:11.795Z,91.75
2023-04-15T20:47:40.171Z,91.16
2023-04-15T20:50:10.005Z,91.18
2023-04-15T20:52:37.999Z,90.84
2023-04-15T20:55:08.045Z,91.27
2023-04-15T20:57:37.668Z,91.02
2023-04-15T21:00:09.268Z,91.54
2023-04-15T21:02:37.665Z,91.94
2023-04-15T21:05:06.984Z,91.82
2023-04-15T21:07:35.204Z,91.36
2023-04-15T21:10:04.120Z,91.24
2023-04-15T21:12:32.859Z,90.93
2023-04-15T21:15:02.887Z,90.88
2023-04-15T21:17:30.906Z,90.25
2023-04-15T21:19:59.198Z,89.95
2023-04-15T21:22:27.418Z,89.92
2023-04-15T21:24:55.709Z,90.48
2023-04-15T21:27:25.598Z,90.79
2023-04-15T21:29:54.028Z,90.27
2023-04-15T21:32:23.443Z,90.26
2023-04-15T21:34:51.918Z,90.10
2023-04-15T21:37:19.960Z,90.29
2023-04-15T21:39:48.179Z,89.61
2023-04-15T21:42:16.482Z,90.06
2023-04-15T21:44:44.778Z,89.42
2023-04-15T21:47:12.857Z,89.26
2023-04-15T21:49:42.551Z,90.20
2023-04-15T21:52:11.049Z,89.79
2023-04-15T21:54:39.363Z,89.16
2023-04-15T21:57:07.399Z,89.51
2023-04-15T21:59:35.671Z,88.84
2023-04-15T22:02:03.915Z,88.37
2023-04-15T22:04:32.275Z,88.76
2023-04-15T22:07:02.262Z,88.59
2023-04-15T22:09:30.843Z,87.85
2023-04-15T22:11:59.575Z,88.24
2023-04-15T22:14:28.315Z,87.36
2023-04-15T22:16:56.718Z,87.81
2023-04-15T22:19:25.834Z,88.03
2023-04-15T22:21:53.935Z,88.85
2023-04-15T22:24:34.352Z,89.20
2023-04-15T22:27:08.178Z,88.73
2023-04-15T22:29:36.553Z,88.36
2023-04-15T22:32:04.567Z,88.70
2023-04-15T22:34:32.848Z,87.96
2023-04-15T22:37:01.024Z,88.24
2023-04-15T22:39:30.678Z,87.12
2023-04-15T22:41:58.648Z,87.07
2023-04-15T22:44:26.925Z,86.85
2023-04-15T22:46:55.946Z,86.44
2023-04-15T22:49:24.152Z,87.32
2023-04-15T22:51:52.293Z,85.97
2023-04-15T22:54:20.704Z,86.38
2023-04-15T22:56:50.100Z,85.80
2023-04-15T22:59:18.371Z,85.98
2023-04-15T23:01:46.363Z,86.32
2023-04-15T23:04:25.868Z,86.18
2023-04-15T23:06:55.752Z,86.43
2023-04-15T23:09:24.263Z,86.15
2023-04-15T23:11:53.767Z,85.70
2023-04-15T23:14:21.952Z,86.04
2023-04-15T23:16:49.978Z,86.66
2023-04-15T23:19:18.231Z,86.74
2023-04-15T23:21:46.399Z,86.70
2023-04-15T23:24:14.688Z,87.07
2023-04-15T23:26:42.737Z,86.59
2023-04-15T23:29:12.392Z,86.74
2023-04-15T23:31:41.461Z,86.51
2023-04-15T23:34:09.901Z,86.58
2023-04-15T23:36:38.091Z,86.63
2023-04-15T23:39:06.320Z,87.24
2023-04-15T23:41:34.320Z,86.85
2023-04-15T23:44:02.905Z,86.83
2023-04-15T23:46:32.328Z,87.50
2023-04-15T23:49:00.674Z,87.52
2023-04-15T23:51:28.866Z,87.61
2023-04-15T23:53:57.082Z,87.67
2023-04-15T23:56:25.090Z,88.11
2023-04-15T23:58:53.311Z,87.88
